createdAt,value
2023-02-18T00:00:10.184Z,80.35
2023-02-18T00:03:16.408Z,79.56
2023-02-18T00:06:14.921Z,79.10
2023-02-18T00:09:02.429Z,78.42
2023-02-18T00:11:48.749Z,79.01
2023-02-18T00:14:35.500Z,78.54
2023-02-18T00:17:22.212Z,79.38
2023-02-18T00:20:09.120Z,80.33
2023-02-18T00:22:55.494Z,80.88
2023-02-18T00:25:42.155Z,79.68
2023-02-18T00:28:28.520Z,79.53
2023-02-18T00:31:22.064Z,79.65
2023-02-18T00:34:11.540Z,78.33
2023-02-18T00:36:58.547Z,77.33
2023-02-18T00:39:45.160Z,75.90
2023-02-18T00:42:31.782Z,75.34
2023-02-18T00:45:18.675Z,75.48
2023-02-18T00:48:05.209Z,75.33
2023-02-18T00:50:51.716Z,75.33
2023-02-18T00:53:39.829Z,74.76
2023-02-18T00:56:26.654Z,73.80
2023-02-18T00:59:13.245Z,73.60
2023-02-18T01:01:59.856Z,73.25
2023-02-18T01:04:46.729Z,72.48
2023-02-18T01:07:32.983Z,73.48
2023-02-18T01:10:19.669Z,73.17
2023-02-18T01:13:06.544Z,72.23
2023-02-18T01:15:53.530Z,70.62
2023-02-18T01:18:40.173Z,70.97
2023-02-18T01:21:26.766Z,70.04
2023-02-18T01:24:13.347Z,70.15
2023-02-18T01:26:59.743Z,69.88
2023-02-18T01:29:46.517Z,70.31
2023-02-18T01:32:33.070Z,70.63
2023-02-18T01:35:20.353Z,70.81
2023-02-18T01:38:07.318Z,71.22
2023-02-18T01:40:54.402Z,70.90
2023-02-18T01:43:41.038Z,71.00
2023-02-18T01:46:27.430Z,70.65
2023-02-18T01:49:23.791Z,70.31
2023-02-18T01:52:15.531Z,69.86
2023-02-18T01:55:02.373Z,70.48
2023-02-18T01:57:48.677Z,70.36
2023-02-18T02:00:37.132Z,70.43
2023-02-18T02:03:23.468Z,70.62
2023-02-18T02:06:17.601Z,71.40
2023-02-18T02:09:07.090Z,70.80
2023-02-18T02:12:13.244Z,71.48
2023-02-18T02:15:24.610Z,71.33
2023-02-18T02:18:38.541Z,71.07
2023-02-18T02:21:48.605Z,70.99
2023-02-18T02:25:25.815Z,71.58
2023-02-18T02:28:30.497Z,71.23
2023-02-18T02:31:41.607Z,71.64
2023-02-18T02:34:34.483Z,71.87
2023-02-18T02:37:39.831Z,71.46
2023-02-18T02:40:45.202Z,71.44
2023-02-18T02:43:47.606Z,70.85
2023-02-18T02:46:41.258Z,71.21
2023-02-18T02:49:40.582Z,70.62
2023-02-18T02:52:32.896Z,71.07
2023-02-18T02:55:19.295Z,70.82
2023-02-18T02:58:06.049Z,70.94
2023-02-18T03:01:06.725Z,70.58
2023-02-18T03:04:22.245Z,70.78
2023-02-18T03:07:38.459Z,71.29
2023-02-18T03:10:59.679Z,71.52
2023-02-18T03:14:24.393Z,71.52
2023-02-18T03:17:31.668Z,71.96
2023-02-18T03:20:30.922Z,71.77
2023-02-18T03:23:22.152Z,71.97
2023-02-18T03:26:10.934Z,71.80
2023-02-18T03:29:03.059Z,72.06
2023-02-18T03:31:55.478Z,72.33
2023-02-18T03:34:45.847Z,72.35
2023-02-18T03:37:40.724Z,72.07
2023-02-18T03:40:29.562Z,71.71
2023-02-18T03:43:18.516Z,71.80
2023-02-18T03:46:05.089Z,71.53
2023-02-18T03:48:51.826Z,71.86
2023-02-18T03:51:38.637Z,71.58
2023-02-18T03:54:24.968Z,71.75
2023-02-18T03:57:11.531Z,71.69
2023-02-18T03:59:58.129Z,71.68
2023-02-18T04:02:44.936Z,71.98
2023-02-18T04:05:31.357Z,71.15
2023-02-18T04:08:17.926Z,71.71
2023-02-18T04:11:05.254Z,71.79
2023-02-18T04:13:52.015Z,71.74
2023-02-18T04:16:38.692Z,71.77
2023-02-18T04:19:25.608Z,72.02
2023-02-18T04:22:11.987Z,72.26
2023-02-18T04:24:59.230Z,72.47
2023-02-18T04:27:45.501Z,72.00
2023-02-18T04:30:32.371Z,72.04
2023-02-18T04:33:18.887Z,72.36
2023-02-18T04:36:06.182Z,72.40
2023-02-18T04:38:53.184Z,72.47
2023-02-18T04:41:40.012Z,72.57
2023-02-18T04:44:26.271Z,72.45
2023-02-18T04:47:12.670Z,72.60
2023-02-18T04:49:59.316Z,72.60
2023-02-18T04:52:46.038Z,72.69
2023-02-18T04:55:32.394Z,72.86
2023-02-18T04:58:19.815Z,72.64
2023-02-18T05:01:06.438Z,72.69
2023-02-18T05:03:52.889Z,73.02
2023-02-18T05:06:39.979Z,72.45
2023-02-18T05:09:26.727Z,72.50
2023-02-18T05:12:13.480Z,72.72
2023-02-18T05:14:59.931Z,72.60
2023-02-18T05:17:46.615Z,72.41
2023-02-18T05:20:33.865Z,72.39
2023-02-18T05:23:21.405Z,72.53
2023-02-18T05:26:09.523Z,72.71
2023-02-18T05:28:57.558Z,72.42
2023-02-18T05:31:44.307Z,72.80
2023-02-18T05:34:31.298Z,73.04
2023-02-18T05:37:18.592Z,72.49
2023-02-18T05:40:05.831Z,72.35
2023-02-18T05:42:53.293Z,72.50
2023-02-18T05:45:39.965Z,72.71
2023-02-18T05:48:26.454Z,72.75
2023-02-18T05:51:12.835Z,72.63
2023-02-18T05:53:59.547Z,73.04
2023-02-18T05:56:46.285Z,72.91
2023-02-18T05:59:32.970Z,72.85
2023-02-18T06:02:20.794Z,72.68
2023-02-18T06:05:07.850Z,72.58
2023-02-18T06:07:56.618Z,72.64
2023-02-18T06:10:43.292Z,72.51
2023-02-18T06:13:29.786Z,72.42
2023-02-18T06:16:16.067Z,72.25
2023-02-18T06:19:02.498Z,72.39
2023-02-18T06:21:49.212Z,71.81
2023-02-18T06:24:35.855Z,71.65
2023-02-18T06:27:22.496Z,72.00
2023-02-18T06:30:09.630Z,71.84
2023-02-18T06:32:56.255Z,71.43
2023-02-18T06:35:57.636Z,71.70
2023-02-18T06:38:45.531Z,71.55
2023-02-18T06:41:32.555Z,71.16
2023-02-18T06:44:19.213Z,71.24
2023-02-18T06:47:06.054Z,71.34
2023-02-18T06:49:52.615Z,71.47
2023-02-18T06:52:39.264Z,71.48
2023-02-18T06:55:26.280Z,71.39
2023-02-18T06:58:14.206Z,71.47
2023-02-18T07:01:00.703Z,71.36
2023-02-18T07:03:49.860Z,71.37
2023-02-18T07:06:36.745Z,71.54
2023-02-18T07:09:23.507Z,71.65
2023-02-18T07:12:10.417Z,70.94
2023-02-18T07:14:57.130Z,70.91
2023-02-18T07:17:43.526Z,70.58
2023-02-18T07:20:30.426Z,69.56
2023-02-18T07:23:17.038Z,69.62
2023-02-18T07:26:14.406Z,69.64
2023-02-18T07:29:00.975Z,69.68
2023-02-18T07:31:47.743Z,69.49
2023-02-18T07:34:34.242Z,69.62
2023-02-18T07:37:21.123Z,69.73
2023-02-18T07:40:10.642Z,69.89
2023-02-18T07:42:57.024Z,69.47
2023-02-18T07:45:44.704Z,69.35
2023-02-18T07:48:31.279Z,69.50
2023-02-18T07:51:17.997Z,69.66
2023-02-18T07:54:04.816Z,69.04
2023-02-18T07:56:51.637Z,68.31
2023-02-18T07:59:38.014Z,68.56
2023-02-18T08:02:25.082Z,69.23
2023-02-18T08:05:12.893Z,68.97
2023-02-18T08:07:59.334Z,67.52
2023-02-18T08:10:47.145Z,67.12
2023-02-18T08:13:34.001Z,66.88
2023-02-18T08:16:21.463Z,66.29
2023-02-18T08:19:08.713Z,66.47
2023-02-18T08:21:55.056Z,66.22
2023-02-18T08:24:41.495Z,66.26
2023-02-18T08:27:28.279Z,66.30
2023-02-18T08:30:15.695Z,65.77
2023-02-18T08:33:02.215Z,66.69
2023-02-18T08:35:50.727Z,65.78
2023-02-18T08:38:37.485Z,65.91
2023-02-18T08:41:24.092Z,65.79
2023-02-18T08:44:10.729Z,65.20
2023-02-18T08:46:57.378Z,65.34
2023-02-18T08:49:44.286Z,65.23
2023-02-18T08:52:31.119Z,65.84
2023-02-18T08:55:20.767Z,64.87
2023-02-18T08:58:07.133Z,65.49
2023-02-18T09:00:53.871Z,64.98
2023-02-18T09:03:41.562Z,64.28
2023-02-18T09:06:27.873Z,62.73
2023-02-18T09:09:14.276Z,62.70
2023-02-18T09:12:00.993Z,62.31
2023-02-18T09:14:48.751Z,61.75
2023-02-18T09:17:35.244Z,62.47
2023-02-18T09:20:21.812Z,62.07
2023-02-18T09:23:08.453Z,62.36
2023-02-18T09:25:55.084Z,61.73
2023-02-18T09:28:41.843Z,62.04
2023-02-18T09:31:28.809Z,62.16
2023-02-18T09:34:15.385Z,62.58
2023-02-18T09:37:02.566Z,62.50
2023-02-18T09:39:49.074Z,62.31
2023-02-18T09:42:35.752Z,62.04
2023-02-18T09:45:22.253Z,61.53
2023-02-18T09:48:09.632Z,60.87
2023-02-18T09:50:56.393Z,60.67
2023-02-18T09:53:47.270Z,60.18
2023-02-18T09:56:39.638Z,60.37
2023-02-18T09:59:27.516Z,60.17
2023-02-18T10:02:17.559Z,60.10
2023-02-18T10:05:06.054Z,60.23
2023-02-18T10:07:56.032Z,60.16
2023-02-18T10:10:45.904Z,60.54
2023-02-18T10:13:34.665Z,60.84
2023-02-18T10:16:23.591Z,60.89
2023-02-18T10:19:32.397Z,61.12
2023-02-18T10:22:20.822Z,61.42
2023-02-18T10:25:08.281Z,60.83
2023-02-18T10:27:54.551Z,60.15
2023-02-18T10:30:46.306Z,59.20
2023-02-18T10:33:46.576Z,58.73
2023-02-18T10:36:42.835Z,58.51
2023-02-18T10:39:49.687Z,58.50
2023-02-18T10:42:46.775Z,56.90
2023-02-18T10:45:36.706Z,56.49
2023-02-18T10:48:26.236Z,54.49
2023-02-18T10:51:20.615Z,53.61
2023-02-18T10:54:07.989Z,52.38
2023-02-18T10:57:00.570Z,51.23
2023-02-18T11:00:12.772Z,51.96
2023-02-18T11:03:22.754Z,52.33
2023-02-18T11:06:33.889Z,52.94
2023-02-18T11:09:35.353Z,52.90
2023-02-18T11:12:29.318Z,55.34
2023-02-18T11:15:16.339Z,55.43
2023-02-18T11:18:26.694Z,55.49
2023-02-18T11:21:36.539Z,56.51
2023-02-18T11:24:22.940Z,56.92
2023-02-18T11:27:21.449Z,57.44
2023-02-18T11:30:22.088Z,58.10
2023-02-18T11:33:16.324Z,57.95
2023-02-18T11:36:17.196Z,57.55
2023-02-18T11:39:07.685Z,58.77
2023-02-18T11:42:01.943Z,58.49
2023-02-18T11:44:52.902Z,58.64
2023-02-18T11:47:40.062Z,58.40
2023-02-18T11:50:30.986Z,58.36
2023-02-18T11:53:37.912Z,57.65
2023-02-18T11:56:24.258Z,55.91
2023-02-18T11:59:11.114Z,55.71
2023-02-18T12:02:06.579Z,55.08
2023-02-18T12:05:19.982Z,54.37
2023-02-18T12:08:09.610Z,54.67
2023-02-18T12:11:09.832Z,56.00
2023-02-18T12:13:58.685Z,56.78
2023-02-18T12:16:45.491Z,57.32
2023-02-18T12:20:03.070Z,56.66
2023-02-18T12:23:16.886Z,56.65
2023-02-18T12:26:09.376Z,57.06
2023-02-18T12:29:10.247Z,56.38
2023-02-18T12:32:24.719Z,57.32
2023-02-18T12:35:23.628Z,57.70
2023-02-18T12:38:25.362Z,57.23
2023-02-18T12:41:17.975Z,56.97
2023-02-18T12:44:36.042Z,57.10
2023-02-18T12:47:45.620Z,56.37
2023-02-18T12:50:52.339Z,54.85
2023-02-18T12:53:38.578Z,55.15
2023-02-18T12:56:43.554Z,54.67
2023-02-18T13:00:08.118Z,54.66
2023-02-18T13:03:22.505Z,55.33
2023-02-18T13:06:19.331Z,55.39
2023-02-18T13:09:11.688Z,55.10
2023-02-18T13:12:04.080Z,54.51
2023-02-18T13:15:06.460Z,54.26
2023-02-18T13:17:57.155Z,54.96
2023-02-18T13:20:49.819Z,55.48
2023-02-18T13:23:48.158Z,55.91
2023-02-18T13:26:35.547Z,56.80
2023-02-18T13:29:34.621Z,57.86
2023-02-18T13:32:50.824Z,58.79
2023-02-18T13:36:00.563Z,59.75
2023-02-18T13:38:53.260Z,60.30
2023-02-18T13:41:42.963Z,60.68
2023-02-18T13:44:29.354Z,61.17
2023-02-18T13:47:49.686Z,61.70
2023-02-18T13:50:42.287Z,61.93
2023-02-18T13:53:33.033Z,62.61
2023-02-18T13:56:35.379Z,62.62
2023-02-18T13:59:38.136Z,62.36
2023-02-18T14:02:25.085Z,62.53
2023-02-18T14:05:21.864Z,62.20
2023-02-18T14:08:14.686Z,62.43
2023-02-18T14:11:14.273Z,62.22
2023-02-18T14:14:00.701Z,62.35
2023-02-18T14:17:15.256Z,62.89
2023-02-18T14:20:01.933Z,63.10
2023-02-18T14:22:52.885Z,62.96
2023-02-18T14:25:42.085Z,63.30
2023-02-18T14:28:34.413Z,63.40
2023-02-18T14:31:36.839Z,63.56
2023-02-18T14:34:23.845Z,63.48
2023-02-18T14:37:28.768Z,63.81
2023-02-18T14:40:33.789Z,63.98
2023-02-18T14:43:54.444Z,64.03
2023-02-18T14:46:43.636Z,64.28
2023-02-18T14:49:50.002Z,64.36
2023-02-18T14:52:42.576Z,64.55
2023-02-18T14:55:33.464Z,64.55
2023-02-18T14:58:32.504Z,64.89
2023-02-18T15:01:28.490Z,65.54
2023-02-18T15:04:15.840Z,66.70
2023-02-18T15:07:05.576Z,68.21
2023-02-18T15:09:55.012Z,70.43
2023-02-18T15:12:42.116Z,71.07
2023-02-18T15:15:28.606Z,71.69
2023-02-18T15:18:23.928Z,72.86
2023-02-18T15:21:20.646Z,74.48
2023-02-18T15:24:08.995Z,77.24
2023-02-18T15:27:18.971Z,78.43
2023-02-18T15:30:33.065Z,77.60
2023-02-18T15:33:21.768Z,76.91
2023-02-18T15:36:15.092Z,74.78
2023-02-18T15:39:01.520Z,74.34
2023-02-18T15:41:53.893Z,74.39
2023-02-18T15:44:46.780Z,76.09
2023-02-18T15:47:33.527Z,77.76
2023-02-18T15:50:32.931Z,78.82
2023-02-18T15:53:21.103Z,79.64
2023-02-18T15:56:13.960Z,80.62
2023-02-18T15:59:10.953Z,81.65
2023-02-18T16:02:10.988Z,82.54
2023-02-18T16:05:05.247Z,82.89
2023-02-18T16:07:57.293Z,83.11
2023-02-18T16:10:56.168Z,83.94
2023-02-18T16:13:47.968Z,84.76
2023-02-18T16:16:39.438Z,84.37
2023-02-18T16:19:26.213Z,85.38
2023-02-18T16:22:44.083Z,86.58
2023-02-18T16:25:49.183Z,88.46
2023-02-18T16:28:35.911Z,89.62
2023-02-18T16:31:22.940Z,90.75
2023-02-18T16:34:09.836Z,91.35
2023-02-18T16:37:17.068Z,91.90
2023-02-18T16:40:05.694Z,91.73
2023-02-18T16:42:52.786Z,92.19
2023-02-18T16:45:43.597Z,92.95
2023-02-18T16:48:35.777Z,93.12
2023-02-18T16:51:26.100Z,94.03
2023-02-18T16:54:13.691Z,94.35
2023-02-18T16:57:03.263Z,94.79
2023-02-18T16:59:50.335Z,94.96
2023-02-18T17:02:37.003Z,94.89
2023-02-18T17:05:40.320Z,94.94
2023-02-18T17:08:27.484Z,95.54
2023-02-18T17:11:25.841Z,95.25
2023-02-18T17:14:18.012Z,95.46
2023-02-18T17:17:14.046Z,95.76
2023-02-18T17:20:00.890Z,95.91
2023-02-18T17:22:47.481Z,95.89
2023-02-18T17:25:38.067Z,96.12
2023-02-18T17:28:24.379Z,96.38
2023-02-18T17:31:19.288Z,96.35
2023-02-18T17:34:09.287Z,96.11
2023-02-18T17:36:55.429Z,95.75
2023-02-18T17:39:41.806Z,95.36
2023-02-18T17:42:28.557Z,95.85
2023-02-18T17:45:32.060Z,95.99
2023-02-18T17:48:18.995Z,96.38
2023-02-18T17:51:09.218Z,96.29
2023-02-18T17:53:55.870Z,96.41
2023-02-18T17:56:43.219Z,95.75
2023-02-18T17:59:32.967Z,95.64
2023-02-18T18:02:27.209Z,95.49
2023-02-18T18:05:17.921Z,95.37
2023-02-18T18:08:05.808Z,95.41
2023-02-18T18:11:01.130Z,95.46
2023-02-18T18:13:48.356Z,95.34
2023-02-18T18:16:34.901Z,94.78
2023-02-18T18:19:22.755Z,94.76
2023-02-18T18:22:11.517Z,94.39
2023-02-18T18:25:20.509Z,94.38
2023-02-18T18:28:08.273Z,94.51
2023-02-18T18:30:56.783Z,94.80
2023-02-18T18:33:49.024Z,94.08
2023-02-18T18:36:35.586Z,93.71
2023-02-18T18:39:22.145Z,93.83
2023-02-18T18:42:12.084Z,93.83
2023-02-18T18:44:58.604Z,93.23
2023-02-18T18:47:46.339Z,92.96
2023-02-18T18:50:39.269Z,93.19
2023-02-18T18:53:29.874Z,93.18
2023-02-18T18:56:16.369Z,93.12
2023-02-18T18:59:04.111Z,93.49
2023-02-18T19:01:51.981Z,93.94
2023-02-18T19:04:38.268Z,93.94
2023-02-18T19:07:24.638Z,93.83
2023-02-18T19:10:10.936Z,94.04
2023-02-18T19:13:11.423Z,94.04
2023-02-18T19:16:19.328Z,93.30
2023-02-18T19:19:05.598Z,93.45
2023-02-18T19:21:53.382Z,93.14
2023-02-18T19:24:39.863Z,93.59
2023-02-18T19:27:26.196Z,93.58
2023-02-18T19:33:14.157Z,94.03
2023-02-18T19:36:00.582Z,94.56
2023-02-18T19:38:47.220Z,94.47
2023-02-18T19:41:33.719Z,94.03
2023-02-18T19:44:21.770Z,94.01
2023-02-18T19:47:08.107Z,94.06
2023-02-18T19:49:54.909Z,94.03
2023-02-18T19:52:41.806Z,94.49
2023-02-18T19:55:28.155Z,94.63
2023-02-18T19:58:14.726Z,94.73
2023-02-18T20:01:01.149Z,94.84
2023-02-18T20:03:47.644Z,94.72
2023-02-18T20:06:34.443Z,94.46
2023-02-18T20:09:21.121Z,94.48
2023-02-18T20:12:09.936Z,94.37
2023-02-18T20:14:56.486Z,94.02
2023-02-18T20:17:43.318Z,94.05
2023-02-18T20:20:30.024Z,94.24
2023-02-18T20:23:16.558Z,94.19
2023-02-18T20:26:08.117Z,94.29
2023-02-18T20:28:54.412Z,94.08
2023-02-18T20:31:42.717Z,93.96
2023-02-18T20:34:29.810Z,93.71
2023-02-18T20:37:17.282Z,93.49
2023-02-18T20:40:04.244Z,93.53
2023-02-18T20:42:50.469Z,93.54
2023-02-18T20:45:36.925Z,93.44
2023-02-18T20:48:23.556Z,93.64
2023-02-18T20:51:13.487Z,93.92
2023-02-18T20:54:00.836Z,93.51
2023-02-18T20:56:49.196Z,93.04
2023-02-18T20:59:36.007Z,92.98
2023-02-18T21:02:22.427Z,93.31
2023-02-18T21:05:09.304Z,93.44
2023-02-18T21:07:57.148Z,93.00
2023-02-18T21:10:43.418Z,92.92
2023-02-18T21:13:30.254Z,92.35
2023-02-18T21:16:18.437Z,92.56
2023-02-18T21:19:07.342Z,92.81
2023-02-18T21:21:53.560Z,92.22
2023-02-18T21:24:40.188Z,92.16
2023-02-18T21:27:26.945Z,91.45
2023-02-18T21:30:13.384Z,91.49
2023-02-18T21:33:00.097Z,91.25
2023-02-18T21:35:49.128Z,90.54
2023-02-18T21:38:35.289Z,90.31
2023-02-18T21:41:22.182Z,90.37
2023-02-18T21:44:09.747Z,89.91
2023-02-18T21:46:56.478Z,90.14
2023-02-18T21:49:43.149Z,90.59
2023-02-18T21:52:29.856Z,90.59
2023-02-18T21:55:18.506Z,90.18
2023-02-18T21:58:04.966Z,89.47
2023-02-18T22:00:58.355Z,89.09
2023-02-18T22:03:44.664Z,89.72
2023-02-18T22:06:31.190Z,89.98
2023-02-18T22:09:18.537Z,90.14
2023-02-18T22:12:07.446Z,90.44
2023-02-18T22:14:53.712Z,90.75
2023-02-18T22:17:40.362Z,91.32
2023-02-18T22:20:27.463Z,91.50
2023-02-18T22:23:14.135Z,91.53
2023-02-18T22:26:08.807Z,91.79
2023-02-18T22:28:59.103Z,91.69
2023-02-18T22:31:47.018Z,91.59
2023-02-18T22:34:33.702Z,91.59
2023-02-18T22:41:42.559Z,91.90
2023-02-18T22:44:29.342Z,92.21
2023-02-18T22:47:15.864Z,92.31
2023-02-18T22:50:02.855Z,92.23
2023-02-18T22:52:49.086Z,92.11
2023-02-18T22:55:35.764Z,92.04
2023-02-18T23:02:31.546Z,91.65
2023-02-18T23:05:17.912Z,91.79
2023-02-18T23:08:06.177Z,91.53
2023-02-18T23:11:03.953Z,91.37
2023-02-18T23:14:09.651Z,90.93
2023-02-18T23:17:13.680Z,90.45
2023-02-18T23:19:59.974Z,90.49
2023-02-18T23:22:46.559Z,89.95
2023-02-18T23:25:33.173Z,89.86
2023-02-18T23:28:19.849Z,89.74
2023-02-18T23:31:06.628Z,89.45
2023-02-18T23:33:56.248Z,89.63
2023-02-18T23:36:43.238Z,89.53
2023-02-18T23:39:29.768Z,89.41
2023-02-18T23:42:17.040Z,89.22
2023-02-18T23:45:03.642Z,89.06
2023-02-18T23:47:50.911Z,88.76
2023-02-18T23:50:37.437Z,89.00
2023-02-18T23:53:28.937Z,89.04
2023-02-18T23:56:18.351Z,88.73
2023-02-18T23:59:05.888Z,88.37
